sensor_id;sensor_type;location;lat;lon;timestamp;temperature;humidity
26952;DHT22;14507;52.418;13.398;2023-04-12T00:02:07;5.50;99.90
26952;DHT22;14507;52.418;13.398;2023-04-12T00:04:33;5.50;99.90
26952;DHT22;14507;52.418;13.398;2023-04-12T00:07:00;5.40;99.90
26952;DHT22;14507;52.418;13.398;2023-04-12T00:09:27;5.40;99.90
26952;DHT22;14507;52.418;13.398;2023-04-12T00:11:56;5.40;99.90
26952;DHT22;14507;52.418;13.398;2023-04-12T00:14:28;5.40;99.90
26952;DHT22;14507;52.418;13.398;2023-04-12T00:16:54;5.30;99.90
26952;DHT22;14507;52.418;13.398;2023-04-12T00:19:23;5.30;99.90
26952;DHT22;14507;52.418;13.398;2023-04-12T00:21:50;5.30;99.90
26952;DHT22;14507;52.418;13.398;2023-04-12T00:24:15;5.30;99.90
26952;DHT22;14507;52.418;13.398;2023-04-12T00:26:41;5.30;99.90
26952;DHT22;14507;52.418;13.398;2023-04-12T00:29:06;5.30;99.90
26952;DHT22;14507;52.418;13.398;2023-04-12T00:31:32;5.30;99.90
26952;DHT22;14507;52.418;13.398;2023-04-12T00:33:58;5.20;99.90
26952;DHT22;14507;52.418;13.398;2023-04-12T00:36:23;5.20;99.90
26952;DHT22;14507;52.418;13.398;2023-04-12T00:38:49;5.20;99.90
26952;DHT22;14507;52.418;13.398;2023-04-12T00:41:16;5.10;99.90
26952;DHT22;14507;52.418;13.398;2023-04-12T00:43:42;5.10;99.90
26952;DHT22;14507;52.418;13.398;2023-04-12T00:46:08;5.10;99.90
26952;DHT22;14507;52.418;13.398;2023-04-12T00:48:34;5.10;99.90
26952;DHT22;14507;52.418;13.398;2023-04-12T00:51:00;5.10;99.90
26952;DHT22;14507;52.418;13.398;2023-04-12T00:53:28;5.00;99.90
26952;DHT22;14507;52.418;13.398;2023-04-12T00:55:54;5.10;99.90
26952;DHT22;14507;52.418;13.398;2023-04-12T00:58:21;5.00;99.90
26952;DHT22;14507;52.418;13.398;2023-04-12T01:00:48;5.00;99.90
26952;DHT22;14507;52.418;13.398;2023-04-12T01:03:18;5.00;99.90
26952;DHT22;14507;52.418;13.398;2023-04-12T01:08:33;4.90;99.90
26952;DHT22;14507;52.418;13.398;2023-04-12T01:13:45;4.80;99.90
26952;DHT22;14507;52.418;13.398;2023-04-12T01:18:41;4.80;99.90
26952;DHT22;14507;52.418;13.398;2023-04-12T01:21:15;4.70;99.90
26952;DHT22;14507;52.418;13.398;2023-04-12T01:24:02;4.70;99.90
26952;DHT22;14507;52.418;13.398;2023-04-12T01:26:38;4.70;99.90
26952;DHT22;14507;52.418;13.398;2023-04-12T01:29:10;4.70;99.90
26952;DHT22;14507;52.418;13.398;2023-04-12T01:31:39;4.60;99.90
26952;DHT22;14507;52.418;13.398;2023-04-12T01:34:08;4.60;99.90
26952;DHT22;14507;52.418;13.398;2023-04-12T01:36:36;4.60;99.90
26952;DHT22;14507;52.418;13.398;2023-04-12T01:39:03;4.40;99.90
26952;DHT22;14507;52.418;13.398;2023-04-12T01:41:31;4.60;99.90
26952;DHT22;14507;52.418;13.398;2023-04-12T01:43:57;4.50;99.90
26952;DHT22;14507;52.418;13.398;2023-04-12T01:46:23;4.50;99.90
26952;DHT22;14507;52.418;13.398;2023-04-12T01:48:51;4.40;99.90
26952;DHT22;14507;52.418;13.398;2023-04-12T01:54:10;4.40;99.90
26952;DHT22;14507;52.418;13.398;2023-04-12T01:56:43;4.30;99.90
26952;DHT22;14507;52.418;13.398;2023-04-12T01:59:13;4.30;99.90
26952;DHT22;14507;52.418;13.398;2023-04-12T02:01:40;4.20;99.90
26952;DHT22;14507;52.418;13.398;2023-04-12T02:04:08;4.20;99.90
26952;DHT22;14507;52.418;13.398;2023-04-12T02:06:35;4.20;99.90
26952;DHT22;14507;52.418;13.398;2023-04-12T02:09:03;4.20;99.90
26952;DHT22;14507;52.418;13.398;2023-04-12T02:11:30;4.10;99.90
26952;DHT22;14507;52.418;13.398;2023-04-12T02:13:56;4.10;99.90
26952;DHT22;14507;52.418;13.398;2023-04-12T02:16:22;4.00;99.90
26952;DHT22;14507;52.418;13.398;2023-04-12T02:18:50;4.00;99.90
26952;DHT22;14507;52.418;13.398;2023-04-12T02:21:17;4.10;99.90
26952;DHT22;14507;52.418;13.398;2023-04-12T02:23:42;4.00;99.90
26952;DHT22;14507;52.418;13.398;2023-04-12T02:26:11;4.00;99.90
26952;DHT22;14507;52.418;13.398;2023-04-12T02:28:37;3.90;99.90
26952;DHT22;14507;52.418;13.398;2023-04-12T02:31:06;3.90;99.90
26952;DHT22;14507;52.418;13.398;2023-04-12T02:33:32;3.90;99.90
26952;DHT22;14507;52.418;13.398;2023-04-12T02:35:59;3.80;99.90
26952;DHT22;14507;52.418;13.398;2023-04-12T02:38:27;3.80;99.90
26952;DHT22;14507;52.418;13.398;2023-04-12T02:40:53;3.80;99.90
26952;DHT22;14507;52.418;13.398;2023-04-12T02:43:19;3.80;99.90
26952;DHT22;14507;52.418;13.398;2023-04-12T02:45:45;3.70;99.90
26952;DHT22;14507;52.418;13.398;2023-04-12T02:48:11;3.70;99.90
26952;DHT22;14507;52.418;13.398;2023-04-12T02:50:37;3.60;99.90
26952;DHT22;14507;52.418;13.398;2023-04-12T02:53:02;3.60;99.90
26952;DHT22;14507;52.418;13.398;2023-04-12T02:55:28;3.60;99.90
26952;DHT22;14507;52.418;13.398;2023-04-12T02:57:55;3.60;99.90
26952;DHT22;14507;52.418;13.398;2023-04-12T03:00:22;3.50;99.90
26952;DHT22;14507;52.418;13.398;2023-04-12T03:02:47;3.50;99.90
26952;DHT22;14507;52.418;13.398;2023-04-12T03:05:17;3.70;99.90
26952;DHT22;14507;52.418;13.398;2023-04-12T03:07:43;3.50;99.90
26952;DHT22;14507;52.418;13.398;2023-04-12T03:10:09;3.50;99.90
26952;DHT22;14507;52.418;13.398;2023-04-12T03:12:38;3.50;99.90
26952;DHT22;14507;52.418;13.398;2023-04-12T03:15:04;3.50;99.90
26952;DHT22;14507;52.418;13.398;2023-04-12T03:17:29;3.40;99.90
26952;DHT22;14507;52.418;13.398;2023-04-12T03:19:55;3.40;99.90
26952;DHT22;14507;52.418;13.398;2023-04-12T03:22:22;3.40;99.90
26952;DHT22;14507;52.418;13.398;2023-04-12T03:24:49;3.40;99.90
26952;DHT22;14507;52.418;13.398;2023-04-12T03:27:16;3.40;99.90
26952;DHT22;14507;52.418;13.398;2023-04-12T03:29:41;3.30;99.90
26952;DHT22;14507;52.418;13.398;2023-04-12T03:32:07;3.30;99.90
26952;DHT22;14507;52.418;13.398;2023-04-12T03:34:33;3.30;99.90
26952;DHT22;14507;52.418;13.398;2023-04-12T03:37:00;3.30;99.90
26952;DHT22;14507;52.418;13.398;2023-04-12T03:39:26;3.20;99.90
26952;DHT22;14507;52.418;13.398;2023-04-12T03:41:51;3.20;99.90
26952;DHT22;14507;52.418;13.398;2023-04-12T03:44:18;3.30;99.90
26952;DHT22;14507;52.418;13.398;2023-04-12T03:46:43;3.30;99.90
26952;DHT22;14507;52.418;13.398;2023-04-12T03:49:10;3.50;99.90
26952;DHT22;14507;52.418;13.398;2023-04-12T03:51:36;3.30;99.90
26952;DHT22;14507;52.418;13.398;2023-04-12T03:54:10;3.20;99.90
26952;DHT22;14507;52.418;13.398;2023-04-12T03:56:35;3.10;99.90
26952;DHT22;14507;52.418;13.398;2023-04-12T03:59:03;3.10;99.90
26952;DHT22;14507;52.418;13.398;2023-04-12T04:01:29;3.10;99.90
26952;DHT22;14507;52.418;13.398;2023-04-12T04:03:54;3.00;99.90
26952;DHT22;14507;52.418;13.398;2023-04-12T04:06:21;3.00;99.90
26952;DHT22;14507;52.418;13.398;2023-04-12T04:08:47;3.00;99.90
26952;DHT22;14507;52.418;13.398;2023-04-12T04:11:13;2.90;99.90
26952;DHT22;14507;52.418;13.398;2023-04-12T04:13:38;3.00;99.90
26952;DHT22;14507;52.418;13.398;2023-04-12T04:16:05;2.90;99.90
26952;DHT22;14507;52.418;13.398;2023-04-12T04:18:31;2.90;99.90
26952;DHT22;14507;52.418;13.398;2023-04-12T04:20:57;2.90;99.90
26952;DHT22;14507;52.418;13.398;2023-04-12T04:23:23;2.90;99.90
26952;DHT22;14507;52.418;13.398;2023-04-12T04:25:49;2.90;99.90
26952;DHT22;14507;52.418;13.398;2023-04-12T04:28:18;2.90;99.90
26952;DHT22;14507;52.418;13.398;2023-04-12T04:30:43;2.90;99.90
26952;DHT22;14507;52.418;13.398;2023-04-12T04:33:11;2.90;99.90
26952;DHT22;14507;52.418;13.398;2023-04-12T04:35:40;2.90;99.90
26952;DHT22;14507;52.418;13.398;2023-04-12T04:38:06;2.90;99.90
26952;DHT22;14507;52.418;13.398;2023-04-12T04:40:32;2.90;99.90
26952;DHT22;14507;52.418;13.398;2023-04-12T04:42:58;2.90;99.90
26952;DHT22;14507;52.418;13.398;2023-04-12T04:45:24;2.90;99.90
26952;DHT22;14507;52.418;13.398;2023-04-12T04:47:55;3.00;99.90
26952;DHT22;14507;52.418;13.398;2023-04-12T04:50:22;2.90;99.90
26952;DHT22;14507;52.418;13.398;2023-04-12T04:52:48;2.90;99.90
26952;DHT22;14507;52.418;13.398;2023-04-12T04:55:15;2.90;99.90
26952;DHT22;14507;52.418;13.398;2023-04-12T04:57:49;3.00;99.90
26952;DHT22;14507;52.418;13.398;2023-04-12T05:00:15;3.00;99.90
26952;DHT22;14507;52.418;13.398;2023-04-12T05:02:41;3.00;99.90
26952;DHT22;14507;52.418;13.398;2023-04-12T05:05:08;3.00;99.90
26952;DHT22;14507;52.418;13.398;2023-04-12T05:07:34;3.10;99.90
26952;DHT22;14507;52.418;13.398;2023-04-12T05:10:02;3.20;99.90
26952;DHT22;14507;52.418;13.398;2023-04-12T05:12:28;3.30;99.90
26952;DHT22;14507;52.418;13.398;2023-04-12T05:14:53;3.50;99.90
26952;DHT22;14507;52.418;13.398;2023-04-12T05:17:19;3.90;99.90
26952;DHT22;14507;52.418;13.398;2023-04-12T05:19:44;4.40;99.90
26952;DHT22;14507;52.418;13.398;2023-04-12T05:22:10;5.20;99.90
26952;DHT22;14507;52.418;13.398;2023-04-12T05:24:37;5.60;99.90
26952;DHT22;14507;52.418;13.398;2023-04-12T05:27:03;6.10;99.90
26952;DHT22;14507;52.418;13.398;2023-04-12T05:29:28;6.70;99.90
26952;DHT22;14507;52.418;13.398;2023-04-12T05:31:54;7.10;99.90
26952;DHT22;14507;52.418;13.398;2023-04-12T05:34:19;7.60;99.90
26952;DHT22;14507;52.418;13.398;2023-04-12T05:36:45;8.20;99.90
26952;DHT22;14507;52.418;13.398;2023-04-12T05:39:10;8.70;99.90
26952;DHT22;14507;52.418;13.398;2023-04-12T05:41:36;9.10;99.90
26952;DHT22;14507;52.418;13.398;2023-04-12T05:44:02;9.50;99.90
26952;DHT22;14507;52.418;13.398;2023-04-12T05:46:28;9.90;99.90
26952;DHT22;14507;52.418;13.398;2023-04-12T05:48:54;10.20;99.90
26952;DHT22;14507;52.418;13.398;2023-04-12T05:51:20;10.40;99.90
26952;DHT22;14507;52.418;13.398;2023-04-12T05:53:46;10.80;99.90
26952;DHT22;14507;52.418;13.398;2023-04-12T05:56:11;11.10;99.00
26952;DHT22;14507;52.418;13.398;2023-04-12T05:58:37;11.40;98.50
26952;DHT22;14507;52.418;13.398;2023-04-12T06:01:04;11.60;97.70
26952;DHT22;14507;52.418;13.398;2023-04-12T06:03:29;11.80;97.40
26952;DHT22;14507;52.418;13.398;2023-04-12T06:05:56;12.10;96.90
26952;DHT22;14507;52.418;13.398;2023-04-12T06:08:22;12.20;96.40
26952;DHT22;14507;52.418;13.398;2023-04-12T06:10:47;11.90;96.30
26952;DHT22;14507;52.418;13.398;2023-04-12T06:13:13;11.90;96.60
26952;DHT22;14507;52.418;13.398;2023-04-12T06:15:39;12.00;96.30
26952;DHT22;14507;52.418;13.398;2023-04-12T06:18:06;12.20;97.30
26952;DHT22;14507;52.418;13.398;2023-04-12T06:20:32;12.70;95.80
26952;DHT22;14507;52.418;13.398;2023-04-12T06:22:57;12.90;95.40
26952;DHT22;14507;52.418;13.398;2023-04-12T06:25:23;13.00;95.00
26952;DHT22;14507;52.418;13.398;2023-04-12T06:27:49;13.20;95.00
26952;DHT22;14507;52.418;13.398;2023-04-12T06:30:15;13.40;94.90
26952;DHT22;14507;52.418;13.398;2023-04-12T06:32:41;13.80;93.90
26952;DHT22;14507;52.418;13.398;2023-04-12T06:35:07;14.20;93.00
26952;DHT22;14507;52.418;13.398;2023-04-12T06:37:32;14.60;92.40
26952;DHT22;14507;52.418;13.398;2023-04-12T06:39:58;15.00;91.50
26952;DHT22;14507;52.418;13.398;2023-04-12T06:42:24;15.10;90.00
26952;DHT22;14507;52.418;13.398;2023-04-12T06:44:49;14.80;91.50
26952;DHT22;14507;52.418;13.398;2023-04-12T06:47:15;14.70;91.20
26952;DHT22;14507;52.418;13.398;2023-04-12T06:49:41;14.60;92.80
26952;DHT22;14507;52.418;13.398;2023-04-12T06:52:06;14.50;91.80
26952;DHT22;14507;52.418;13.398;2023-04-12T06:54:35;14.50;91.60
26952;DHT22;14507;52.418;13.398;2023-04-12T06:57:02;14.50;92.10
26952;DHT22;14507;52.418;13.398;2023-04-12T06:59:28;14.60;92.50
26952;DHT22;14507;52.418;13.398;2023-04-12T07:01:53;15.00;91.30
26952;DHT22;14507;52.418;13.398;2023-04-12T07:04:19;15.00;91.30
26952;DHT22;14507;52.418;13.398;2023-04-12T07:06:45;15.40;90.60
26952;DHT22;14507;52.418;13.398;2023-04-12T07:09:11;15.80;89.40
26952;DHT22;14507;52.418;13.398;2023-04-12T07:11:36;15.40;90.00
26952;DHT22;14507;52.418;13.398;2023-04-12T07:14:02;15.40;89.20
26952;DHT22;14507;52.418;13.398;2023-04-12T07:16:31;15.00;90.00
26952;DHT22;14507;52.418;13.398;2023-04-12T07:18:57;14.80;90.80
26952;DHT22;14507;52.418;13.398;2023-04-12T07:21:23;14.80;91.80
26952;DHT22;14507;52.418;13.398;2023-04-12T07:23:49;15.30;91.40
26952;DHT22;14507;52.418;13.398;2023-04-12T07:26:16;15.50;90.40
26952;DHT22;14507;52.418;13.398;2023-04-12T07:28:43;15.50;89.30
26952;DHT22;14507;52.418;13.398;2023-04-12T07:31:08;15.70;89.40
26952;DHT22;14507;52.418;13.398;2023-04-12T07:33:34;16.00;88.10
26952;DHT22;14507;52.418;13.398;2023-04-12T07:36:02;16.50;88.90
26952;DHT22;14507;52.418;13.398;2023-04-12T07:38:27;16.90;86.80
26952;DHT22;14507;52.418;13.398;2023-04-12T07:40:54;17.30;82.70
26952;DHT22;14507;52.418;13.398;2023-04-12T07:43:20;17.00;82.10
26952;DHT22;14507;52.418;13.398;2023-04-12T07:45:46;16.70;82.40
26952;DHT22;14507;52.418;13.398;2023-04-12T07:48:11;16.20;83.80
26952;DHT22;14507;52.418;13.398;2023-04-12T07:50:37;15.80;86.10
26952;DHT22;14507;52.418;13.398;2023-04-12T07:53:24;15.80;88.20
26952;DHT22;14507;52.418;13.398;2023-04-12T07:55:51;16.30;85.10
26952;DHT22;14507;52.418;13.398;2023-04-12T07:58:18;16.30;82.20
26952;DHT22;14507;52.418;13.398;2023-04-12T08:00:44;16.20;83.20
26952;DHT22;14507;52.418;13.398;2023-04-12T08:03:15;16.20;84.00
26952;DHT22;14507;52.418;13.398;2023-04-12T08:05:41;16.00;83.80
26952;DHT22;14507;52.418;13.398;2023-04-12T08:08:07;16.30;83.60
26952;DHT22;14507;52.418;13.398;2023-04-12T08:10:39;16.50;84.70
26952;DHT22;14507;52.418;13.398;2023-04-12T08:13:05;16.80;82.10
26952;DHT22;14507;52.418;13.398;2023-04-12T08:15:31;17.30;82.50
26952;DHT22;14507;52.418;13.398;2023-04-12T08:17:57;17.40;79.00
26952;DHT22;14507;52.418;13.398;2023-04-12T08:20:22;17.20;81.20
26952;DHT22;14507;52.418;13.398;2023-04-12T08:22:48;17.30;82.00
26952;DHT22;14507;52.418;13.398;2023-04-12T08:25:14;17.20;79.50
26952;DHT22;14507;52.418;13.398;2023-04-12T08:27:41;17.40;79.30
26952;DHT22;14507;52.418;13.398;2023-04-12T08:30:08;17.70;76.80
26952;DHT22;14507;52.418;13.398;2023-04-12T08:32:34;17.70;77.90
26952;DHT22;14507;52.418;13.398;2023-04-12T08:35:02;17.60;73.10
26952;DHT22;14507;52.418;13.398;2023-04-12T08:37:28;16.90;75.50
26952;DHT22;14507;52.418;13.398;2023-04-12T08:39:53;16.60;75.80
26952;DHT22;14507;52.418;13.398;2023-04-12T08:42:19;16.50;74.30
26952;DHT22;14507;52.418;13.398;2023-04-12T08:44:45;16.40;74.50
26952;DHT22;14507;52.418;13.398;2023-04-12T08:47:11;16.50;73.80
26952;DHT22;14507;52.418;13.398;2023-04-12T08:49:37;16.80;74.40
26952;DHT22;14507;52.418;13.398;2023-04-12T08:52:07;17.10;74.10
26952;DHT22;14507;52.418;13.398;2023-04-12T08:54:34;17.40;73.90
26952;DHT22;14507;52.418;13.398;2023-04-12T08:57:01;17.70;69.90
26952;DHT22;14507;52.418;13.398;2023-04-12T08:59:28;17.40;72.60
26952;DHT22;14507;52.418;13.398;2023-04-12T09:01:54;17.50;70.80
26952;DHT22;14507;52.418;13.398;2023-04-12T09:04:21;17.20;71.50
26952;DHT22;14507;52.418;13.398;2023-04-12T09:06:46;17.20;71.60
26952;DHT22;14507;52.418;13.398;2023-04-12T09:09:12;17.50;71.60
26952;DHT22;14507;52.418;13.398;2023-04-12T09:11:38;17.60;70.40
26952;DHT22;14507;52.418;13.398;2023-04-12T09:14:19;17.30;71.30
26952;DHT22;14507;52.418;13.398;2023-04-12T09:16:47;17.50;70.30
26952;DHT22;14507;52.418;13.398;2023-04-12T09:19:13;17.70;71.10
26952;DHT22;14507;52.418;13.398;2023-04-12T09:21:54;18.20;70.00
26952;DHT22;14507;52.418;13.398;2023-04-12T09:24:20;18.40;69.10
26952;DHT22;14507;52.418;13.398;2023-04-12T09:27:04;17.50;69.60
26952;DHT22;14507;52.418;13.398;2023-04-12T09:29:31;17.20;70.90
26952;DHT22;14507;52.418;13.398;2023-04-12T09:32:03;17.60;69.70
26952;DHT22;14507;52.418;13.398;2023-04-12T09:34:30;17.50;68.40
26952;DHT22;14507;52.418;13.398;2023-04-12T09:36:56;17.60;64.10
26952;DHT22;14507;52.418;13.398;2023-04-12T09:39:42;17.30;63.60
26952;DHT22;14507;52.418;13.398;2023-04-12T09:42:09;17.40;65.80
26952;DHT22;14507;52.418;13.398;2023-04-12T09:44:36;17.80;64.80
26952;DHT22;14507;52.418;13.398;2023-04-12T09:47:02;18.30;64.10
26952;DHT22;14507;52.418;13.398;2023-04-12T09:49:55;18.40;61.10
26952;DHT22;14507;52.418;13.398;2023-04-12T09:52:21;18.50;60.30
26952;DHT22;14507;52.418;13.398;2023-04-12T09:54:47;18.20;62.30
26952;DHT22;14507;52.418;13.398;2023-04-12T09:57:16;18.30;60.30
26952;DHT22;14507;52.418;13.398;2023-04-12T09:59:43;17.70;60.30
26952;DHT22;14507;52.418;13.398;2023-04-12T10:02:18;17.50;63.50
26952;DHT22;14507;52.418;13.398;2023-04-12T10:04:44;17.40;62.00
26952;DHT22;14507;52.418;13.398;2023-04-12T10:07:14;17.00;63.20
26952;DHT22;14507;52.418;13.398;2023-04-12T10:09:40;16.90;66.60
26952;DHT22;14507;52.418;13.398;2023-04-12T10:12:07;17.10;66.00
26952;DHT22;14507;52.418;13.398;2023-04-12T10:14:34;17.00;63.10
26952;DHT22;14507;52.418;13.398;2023-04-12T10:17:01;16.70;64.60
26952;DHT22;14507;52.418;13.398;2023-04-12T10:19:29;16.60;63.60
26952;DHT22;14507;52.418;13.398;2023-04-12T10:21:58;16.20;63.60
26952;DHT22;14507;52.418;13.398;2023-04-12T10:24:25;15.80;67.50
26952;DHT22;14507;52.418;13.398;2023-04-12T10:26:53;15.80;65.10
26952;DHT22;14507;52.418;13.398;2023-04-12T10:29:28;15.90;65.60
26952;DHT22;14507;52.418;13.398;2023-04-12T10:31:56;16.00;64.60
26952;DHT22;14507;52.418;13.398;2023-04-12T10:34:29;15.60;64.90
26952;DHT22;14507;52.418;13.398;2023-04-12T10:36:58;15.60;69.60
26952;DHT22;14507;52.418;13.398;2023-04-12T10:39:37;15.80;66.00
26952;DHT22;14507;52.418;13.398;2023-04-12T10:44:45;15.70;66.80
26952;DHT22;14507;52.418;13.398;2023-04-12T10:47:10;15.80;66.50
26952;DHT22;14507;52.418;13.398;2023-04-12T10:49:37;15.90;65.80
26952;DHT22;14507;52.418;13.398;2023-04-12T10:52:10;16.00;66.50
26952;DHT22;14507;52.418;13.398;2023-04-12T10:54:37;16.00;66.90
26952;DHT22;14507;52.418;13.398;2023-04-12T10:57:03;16.10;65.80
26952;DHT22;14507;52.418;13.398;2023-04-12T10:59:51;16.20;66.80
26952;DHT22;14507;52.418;13.398;2023-04-12T11:02:18;16.40;68.50
26952;DHT22;14507;52.418;13.398;2023-04-12T11:05:06;16.50;63.90
26952;DHT22;14507;52.418;13.398;2023-04-12T11:07:43;16.50;65.50
26952;DHT22;14507;52.418;13.398;2023-04-12T11:10:13;16.40;65.20
26952;DHT22;14507;52.418;13.398;2023-04-12T11:12:56;16.30;65.30
26952;DHT22;14507;52.418;13.398;2023-04-12T11:15:31;16.20;65.30
26952;DHT22;14507;52.418;13.398;2023-04-12T11:17:59;16.00;67.70
26952;DHT22;14507;52.418;13.398;2023-04-12T11:20:25;16.10;67.10
26952;DHT22;14507;52.418;13.398;2023-04-12T11:22:54;16.20;65.10
26952;DHT22;14507;52.418;13.398;2023-04-12T11:25:19;16.30;67.80
26952;DHT22;14507;52.418;13.398;2023-04-12T11:27:52;16.30;66.10
26952;DHT22;14507;52.418;13.398;2023-04-12T11:30:19;16.30;66.00
26952;DHT22;14507;52.418;13.398;2023-04-12T11:32:45;16.10;66.50
26952;DHT22;14507;52.418;13.398;2023-04-12T11:35:13;16.20;64.30
26952;DHT22;14507;52.418;13.398;2023-04-12T11:37:39;16.10;66.10
26952;DHT22;14507;52.418;13.398;2023-04-12T11:40:05;16.10;64.10
26952;DHT22;14507;52.418;13.398;2023-04-12T11:42:31;15.80;63.40
26952;DHT22;14507;52.418;13.398;2023-04-12T11:44:57;15.60;64.10
26952;DHT22;14507;52.418;13.398;2023-04-12T11:47:24;15.60;66.50
26952;DHT22;14507;52.418;13.398;2023-04-12T11:49:52;15.60;65.80
26952;DHT22;14507;52.418;13.398;2023-04-12T11:52:19;15.60;63.60
26952;DHT22;14507;52.418;13.398;2023-04-12T11:54:49;15.60;66.30
26952;DHT22;14507;52.418;13.398;2023-04-12T11:57:17;15.70;66.40
26952;DHT22;14507;52.418;13.398;2023-04-12T11:59:47;15.80;64.50
26952;DHT22;14507;52.418;13.398;2023-04-12T12:02:14;15.80;63.30
26952;DHT22;14507;52.418;13.398;2023-04-12T12:04:45;15.80;65.80
26952;DHT22;14507;52.418;13.398;2023-04-12T12:07:12;16.00;67.60
26952;DHT22;14507;52.418;13.398;2023-04-12T12:09:39;16.20;65.60
26952;DHT22;14507;52.418;13.398;2023-04-12T12:12:06;16.30;64.70
26952;DHT22;14507;52.418;13.398;2023-04-12T12:14:33;16.20;63.90
26952;DHT22;14507;52.418;13.398;2023-04-12T12:17:00;16.10;65.10
26952;DHT22;14507;52.418;13.398;2023-04-12T12:19:31;16.10;64.00
26952;DHT22;14507;52.418;13.398;2023-04-12T12:22:16;16.20;65.30
26952;DHT22;14507;52.418;13.398;2023-04-12T12:24:49;16.30;65.10
26952;DHT22;14507;52.418;13.398;2023-04-12T12:27:21;16.30;63.90
26952;DHT22;14507;52.418;13.398;2023-04-12T12:29:51;16.20;67.40
26952;DHT22;14507;52.418;13.398;2023-04-12T12:32:18;16.20;65.90
26952;DHT22;14507;52.418;13.398;2023-04-12T12:34:54;16.20;64.30
26952;DHT22;14507;52.418;13.398;2023-04-12T12:37:24;16.10;64.90
26952;DHT22;14507;52.418;13.398;2023-04-12T12:40:07;15.90;64.70
26952;DHT22;14507;52.418;13.398;2023-04-12T12:42:44;15.80;64.30
26952;DHT22;14507;52.418;13.398;2023-04-12T12:45:11;15.80;65.20
26952;DHT22;14507;52.418;13.398;2023-04-12T12:50:12;15.80;65.50
26952;DHT22;14507;52.418;13.398;2023-04-12T12:52:38;15.80;66.40
26952;DHT22;14507;52.418;13.398;2023-04-12T12:55:04;15.90;64.90
26952;DHT22;14507;52.418;13.398;2023-04-12T12:57:30;15.80;65.90
26952;DHT22;14507;52.418;13.398;2023-04-12T12:59:56;15.80;64.50
26952;DHT22;14507;52.418;13.398;2023-04-12T13:02:22;15.70;65.60
26952;DHT22;14507;52.418;13.398;2023-04-12T13:04:47;15.70;64.90
26952;DHT22;14507;52.418;13.398;2023-04-12T13:07:13;15.70;66.10
26952;DHT22;14507;52.418;13.398;2023-04-12T13:09:38;15.90;65.90
26952;DHT22;14507;52.418;13.398;2023-04-12T13:12:04;16.00;64.70
26952;DHT22;14507;52.418;13.398;2023-04-12T13:14:30;16.10;64.50
26952;DHT22;14507;52.418;13.398;2023-04-12T13:16:56;16.10;65.10
26952;DHT22;14507;52.418;13.398;2023-04-12T13:19:22;16.20;65.10
26952;DHT22;14507;52.418;13.398;2023-04-12T13:21:47;16.30;66.20
26952;DHT22;14507;52.418;13.398;2023-04-12T13:24:13;16.40;64.90
26952;DHT22;14507;52.418;13.398;2023-04-12T13:26:38;16.50;63.20
26952;DHT22;14507;52.418;13.398;2023-04-12T13:29:05;16.40;64.50
26952;DHT22;14507;52.418;13.398;2023-04-12T13:31:30;16.50;64.20
26952;DHT22;14507;52.418;13.398;2023-04-12T13:33:56;16.60;65.30
26952;DHT22;14507;52.418;13.398;2023-04-12T13:36:22;16.50;62.80
26952;DHT22;14507;52.418;13.398;2023-04-12T13:38:47;16.40;67.00
26952;DHT22;14507;52.418;13.398;2023-04-12T13:41:13;16.40;65.20
26952;DHT22;14507;52.418;13.398;2023-04-12T13:43:39;16.30;65.50
26952;DHT22;14507;52.418;13.398;2023-04-12T13:46:05;16.40;65.70
26952;DHT22;14507;52.418;13.398;2023-04-12T13:48:31;16.40;65.80
26952;DHT22;14507;52.418;13.398;2023-04-12T13:50:57;16.30;65.00
26952;DHT22;14507;52.418;13.398;2023-04-12T13:53:24;16.30;67.40
26952;DHT22;14507;52.418;13.398;2023-04-12T13:55:49;16.30;66.40
26952;DHT22;14507;52.418;13.398;2023-04-12T13:58:15;16.30;66.60
26952;DHT22;14507;52.418;13.398;2023-04-12T14:00:41;16.20;67.00
26952;DHT22;14507;52.418;13.398;2023-04-12T14:03:07;16.20;67.10
26952;DHT22;14507;52.418;13.398;2023-04-12T14:05:32;16.10;67.90
26952;DHT22;14507;52.418;13.398;2023-04-12T14:07:58;16.00;67.50
26952;DHT22;14507;52.418;13.398;2023-04-12T14:10:23;15.90;69.90
26952;DHT22;14507;52.418;13.398;2023-04-12T14:12:49;15.80;68.90
26952;DHT22;14507;52.418;13.398;2023-04-12T14:15:15;15.80;69.40
26952;DHT22;14507;52.418;13.398;2023-04-12T14:17:40;15.70;67.70
26952;DHT22;14507;52.418;13.398;2023-04-12T14:20:07;15.60;67.10
26952;DHT22;14507;52.418;13.398;2023-04-12T14:22:35;15.50;67.60
26952;DHT22;14507;52.418;13.398;2023-04-12T14:25:01;15.50;67.90
26952;DHT22;14507;52.418;13.398;2023-04-12T14:27:27;15.50;68.60
26952;DHT22;14507;52.418;13.398;2023-04-12T14:29:52;15.50;66.60
26952;DHT22;14507;52.418;13.398;2023-04-12T14:32:18;15.40;67.40
26952;DHT22;14507;52.418;13.398;2023-04-12T14:34:44;15.30;68.10
26952;DHT22;14507;52.418;13.398;2023-04-12T14:37:10;15.20;68.60
26952;DHT22;14507;52.418;13.398;2023-04-12T14:39:36;15.20;67.80
26952;DHT22;14507;52.418;13.398;2023-04-12T14:42:02;15.10;67.20
26952;DHT22;14507;52.418;13.398;2023-04-12T14:44:28;15.10;68.00
26952;DHT22;14507;52.418;13.398;2023-04-12T14:46:53;15.10;67.40
26952;DHT22;14507;52.418;13.398;2023-04-12T14:49:19;15.10;68.10
26952;DHT22;14507;52.418;13.398;2023-04-12T14:51:45;15.00;68.90
26952;DHT22;14507;52.418;13.398;2023-04-12T14:54:11;15.00;69.60
26952;DHT22;14507;52.418;13.398;2023-04-12T14:56:36;14.90;70.50
26952;DHT22;14507;52.418;13.398;2023-04-12T14:59:02;14.90;71.50
26952;DHT22;14507;52.418;13.398;2023-04-12T15:01:28;14.80;71.40
26952;DHT22;14507;52.418;13.398;2023-04-12T15:03:54;14.80;74.50
26952;DHT22;14507;52.418;13.398;2023-04-12T15:06:22;14.70;79.40
26952;DHT22;14507;52.418;13.398;2023-04-12T15:08:49;14.50;83.10
26952;DHT22;14507;52.418;13.398;2023-04-12T15:11:19;14.40;86.70
26952;DHT22;14507;52.418;13.398;2023-04-12T15:13:46;14.20;88.30
26952;DHT22;14507;52.418;13.398;2023-04-12T15:16:14;14.10;89.20
26952;DHT22;14507;52.418;13.398;2023-04-12T15:18:40;13.90;89.90
26952;DHT22;14507;52.418;13.398;2023-04-12T15:21:07;13.80;90.70
26952;DHT22;14507;52.418;13.398;2023-04-12T15:23:40;13.70;92.50
26952;DHT22;14507;52.418;13.398;2023-04-12T15:26:06;13.60;93.20
26952;DHT22;14507;52.418;13.398;2023-04-12T15:28:34;13.60;94.80
26952;DHT22;14507;52.418;13.398;2023-04-12T15:31:00;13.50;94.60
26952;DHT22;14507;52.418;13.398;2023-04-12T15:33:27;13.50;95.70
26952;DHT22;14507;52.418;13.398;2023-04-12T15:35:53;13.40;96.90
26952;DHT22;14507;52.418;13.398;2023-04-12T15:38:23;13.40;98.10
26952;DHT22;14507;52.418;13.398;2023-04-12T15:41:07;13.30;98.40